Yellowstone National Park, WY

11:35 PM MDT on August 28, 2014 (GMT -0600)
RAWS GREBE WY US | Change Station
CLOSE
Current Station
Personal Weather Station
Location: Yellowstone National Park, WY
Elevation: 7899 ft
Nearby Weather Stations

Elev 7899 ft 44.72 °N, 110.51 °W | Updated 46 minutes ago

Rain
Rain
48 °F
Feels Like 48 °F
N
1
Wind Variable Wind from WSW
Gusts 9.0 mph

Today
High -- | Low -- °F
--% Chance of Precip.
Yesterday
High -- | Low -- °F
Precip. -- in
6:39 AM 8:05 PM
Waxing Crescent, 12% visible
Pressure 30.25 in
Visibility 10.0 miles
Clouds Mostly Cloudy 8000 ft
Overcast 9500 ft
Windchill 48 °F
Dew Point 45 °F
Humidity 90%
Rainfall 0.17 in
Snow Depth Not available.
UV 0 out of 12
Pollen 8.80 out of 12
Air Quality Not available.
Flu Activity Not available.
METAR KWYS 290510Z AUTO 16004KT 10SM BKN080 OVC095 11/09 A3025 RMK AO2

More Conditions Fewer Conditions

Pressure 30.25 in
Visibility 10.0 miles
Clouds Mostly Cloudy 8000 ft
Overcast 9500 ft
Windchill 48 °F
Dew Point 45 °F
Humidity 90%
Rainfall 0.17 in
Snow Depth Not available.
UV 0 out of 12
Pollen 8.80 out of 12
Air Quality Not available.
Flu Activity Not available.
METAR KWYS 290510Z AUTO 16004KT 10SM BKN080 OVC095 11/09 A3025 RMK AO2

More Conditions Fewer Conditions

10-Day Weather Forecast

Almanac

Astronomy

Aug. 28, 2014 Rise Set
Actual Time 6:39 AM MDT 8:05 PM MDT
Civil Twilight 6:08 AM MDT 8:36 PM MDT
Nautical Twilight 5:31 AM MDT 9:12 PM MDT
Astronomical Twilight 4:52 AM MDT 9:52 PM MDT
Moon 9:44 AM MDT (8/28) 9:21 PM MDT (8/28)
Length of Visible Light 14h 27m
Length of Day
13h 26m
Tomorrow will be 2m 58s shorter.
Waxing Crescent, 12% of the Moon is Illuminated
Aug 29
Waxing Crescent
Sep 2
First Quarter
Sep 8
Full
Sep 15
Last Quarter
Sep 24
New

Yesterday's Extremes

State Highs State Lows

Community

WunderPhotos

Upload Photos

1,748,196 photos uploaded!

Nearby

Snow Depth

Station Depth Elevation
Thumb Divide 0 in 7980 ft
Snake River Station 0 in 6920 ft
Base Camp 0 in 7030 ft
Phillips Bench 0 in 8200 ft
Gros Ventre Summit 1 in 8750 ft

Earthquake Activity

City Distance Mag. Time & Date
No recent earthquake activity has been reported nearby.
Minimum magnitude displayed is 2.5.

Coastal Water Temperatures

Place Temperature
No Stations Reporting

Nearby Weather Stations